Weather at Philadelphia International Airport

Public forecast

Using degrees Fahrenheit for public forecast. Weather courtesy of forecast.io.

Current aviation weather report (METAR) for Philadelphia International Airport

2022/11/30 08:54 (retrieved 1 hour ago)

KPHL 300854Z 06003KT 10SM SCT050 OVC210 05/02 A3013 RMK AO2 SLP204 T00500017 58024

Aviation forecast (TAF) for Philadelphia International Airport

2022/11/30 09:46 Ammendment (retrieved 13 minutes ago)

TAF AMD KPHL 300838Z 3009/0112 VRB03KT P6SM OVC150 FM301200 14008KT P6SM VCSH OVC040 WS020/17035KT FM301400 17014G24KT 6SM -SHRA BR OVC025 WS020/17035KT FM301800 20019G29KT 6SM -SHRA BR OVC008 FM302100 23018G36KT 6SM -SHRA BR OVC010 FM302200 27018G36KT P6SM OVC050 FM010200 29012G24KT P6SM FEW200